Fribourg, Switzerland
Current Conditions -  °F | °C
As of 4:50 PM on Friday 28 Nov 2014 (Local Time) from LSMP Reporting Station
Overcast Overcast  
Wind Chill: 40°   Ceiling: 600
Heat Index: 43°   Visibility: 6mi
Dew Point: 41°   Wind: 5mph
Humidity: 93%   Direction: 20°NNE
Pressure: 29.71"   Gusts: NA
Location:  46.81°N, 7.14°E
Report Text: LSMP 281550Z 02004KT 9999 OVC006 06/05 Q1006 RMK YLO
Loading
Personal Weather Stations






























Interactive Weather Map New forecast layout! Learn more

10-Day Weather Forecast

Advertisements
Track Severe Weather on mobile